Time;durP1;ratioP1;P1;durP2;ratioP2;P2;SDS_P1;SDS_P2;PMS_P1;PMS_P2;Temp;Humidity;BMP_temperature;BMP_pressure;BME280_temperature;BME280_humidity;BME280_pressure;Samples;Min_cycle;Max_cycle;Signal;HPM_P1;HPM_P2
2022/03/02 00:01:52;;;;;;;25.45;12.20;;;-0.20;99.90;;;;;;4967006;28;20031;-73
2022/03/02 00:04:18;;;;;;;25.30;12.13;;;-0.30;99.90;;;;;;4969838;28;20030;-74
2022/03/02 00:06:44;;;;;;;24.67;11.45;;;-0.40;99.90;;;;;;4966438;28;20027;-73
2022/03/02 00:09:09;;;;;;;26.27;12.13;;;-0.40;99.90;;;;;;4964675;28;20464;-73
2022/03/02 00:11:35;;;;;;;26.33;12.30;;;-0.40;99.90;;;;;;4970491;28;20031;-73
2022/03/02 00:14:02;;;;;;;28.08;11.93;;;-0.50;99.90;;;;;;4967440;28;20043;-73
2022/03/02 00:16:28;;;;;;;24.35;11.73;;;-0.40;99.90;;;;;;4972428;28;20652;-73
2022/03/02 00:18:57;;;;;;;24.75;12.10;;;-0.50;99.90;;;;;;4967511;28;20093;-74
2022/03/02 00:21:23;;;;;;;27.85;12.13;;;-0.50;99.90;;;;;;4967348;28;20033;-74
2022/03/02 00:23:49;;;;;;;22.83;12.68;;;-0.60;99.90;;;;;;4969399;28;20046;-73
2022/03/02 00:26:15;;;;;;;26.02;11.93;;;-0.60;99.90;;;;;;4970048;28;20034;-73
2022/03/02 00:28:41;;;;;;;27.55;12.93;;;-0.70;99.90;;;;;;4965560;28;20039;-73
2022/03/02 00:31:07;;;;;;;25.85;12.77;;;-0.80;99.90;;;;;;4964949;28;20061;-73
2022/03/02 00:33:33;;;;;;;23.85;12.10;;;-0.70;99.90;;;;;;4966656;28;20114;-73
2022/03/02 00:35:59;;;;;;;21.83;11.27;;;-0.70;99.90;;;;;;4963721;28;20037;-74
2022/03/02 00:38:24;;;;;;;30.17;13.00;;;-0.70;99.90;;;;;;4966628;28;20035;-74
2022/03/02 00:40:51;;;;;;;24.90;12.32;;;-0.70;99.90;;;;;;4966694;28;20396;-74
2022/03/02 00:43:17;;;;;;;30.67;13.55;;;-0.70;99.90;;;;;;4966025;28;20472;-74
2022/03/02 00:45:43;;;;;;;30.95;13.50;;;-0.70;99.90;;;;;;4971528;28;20019;-74
2022/03/02 00:48:09;;;;;;;27.17;13.77;;;-0.70;99.90;;;;;;4968564;28;20035;-74
2022/03/02 00:50:35;;;;;;;29.25;14.30;;;-0.70;99.90;;;;;;4969462;28;20038;-74
2022/03/02 00:53:02;;;;;;;28.35;14.15;;;-0.60;99.90;;;;;;4968808;28;20022;-74
2022/03/02 00:55:28;;;;;;;27.42;13.50;;;-0.70;99.90;;;;;;4968526;28;20404;-74
2022/03/02 00:57:54;;;;;;;30.90;12.52;;;-0.60;99.90;;;;;;4966432;28;20030;-72
2022/03/02 01:00:20;;;;;;;27.67;13.80;;;-0.60;99.90;;;;;;4965956;28;20038;-72
2022/03/02 01:02:46;;;;;;;27.98;14.15;;;-0.60;99.90;;;;;;4968759;28;20037;-72
2022/03/02 01:05:12;;;;;;;32.20;14.45;;;-0.60;99.90;;;;;;4967184;28;20085;-72
2022/03/02 01:07:38;;;;;;;29.95;14.40;;;-0.60;99.90;;;;;;4964688;28;20385;-71
2022/03/02 01:10:06;;;;;;;32.17;13.77;;;-0.50;99.90;;;;;;4965546;28;20039;-73
2022/03/02 01:12:32;;;;;;;29.20;14.52;;;-0.60;99.90;;;;;;4966062;28;20034;-75
2022/03/02 01:14:58;;;;;;;30.27;13.73;;;-0.60;99.90;;;;;;4964996;28;20030;-74
2022/03/02 01:17:24;;;;;;;33.35;15.15;;;-0.60;99.90;;;;;;4965035;28;20035;-74
2022/03/02 01:19:50;;;;;;;32.70;15.82;;;-0.60;99.90;;;;;;4967634;28;20051;-74
2022/03/02 01:22:16;;;;;;;36.55;15.57;;;-0.70;99.90;;;;;;4968388;28;20193;-73
2022/03/02 01:24:43;;;;;;;32.65;14.80;;;-0.60;99.90;;;;;;4967119;28;20168;-73
2022/03/02 01:27:08;;;;;;;28.75;13.90;;;-0.70;99.90;;;;;;4965786;28;20026;-73
2022/03/02 01:29:35;;;;;;;30.75;13.95;;;-0.70;99.90;;;;;;4967489;28;20045;-73
2022/03/02 01:32:09;;;;;;;30.30;14.73;;;-0.80;99.90;;;;;;4967482;28;20027;-73
2022/03/02 01:34:35;;;;;;;28.38;13.68;;;-0.90;99.90;;;;;;4964932;28;20030;-74
2022/03/02 01:37:02;;;;;;;31.70;13.75;;;-0.90;99.90;;;;;;4966681;28;20377;-73
2022/03/02 01:39:27;;;;;;;30.90;14.48;;;-0.90;99.90;;;;;;4962809;28;20141;-72
2022/03/02 01:41:53;;;;;;;26.63;13.77;;;-1.00;99.90;;;;;;4962554;28;20023;-72
2022/03/02 01:44:19;;;;;;;28.00;12.50;;;-1.00;99.90;;;;;;4967671;28;20031;-72
2022/03/02 01:46:45;;;;;;;30.60;14.38;;;-1.10;99.90;;;;;;4964387;28;20349;-72
2022/03/02 01:49:11;;;;;;;32.28;14.38;;;-1.00;99.90;;;;;;4965112;28;20038;-72
2022/03/02 01:51:38;;;;;;;27.90;13.43;;;-1.10;99.90;;;;;;4965960;28;20511;-72
2022/03/02 01:54:04;;;;;;;30.58;14.43;;;-1.10;99.90;;;;;;4965494;28;20034;-72
2022/03/02 01:56:31;;;;;;;33.10;13.52;;;-1.20;99.90;;;;;;4964883;28;20508;-72
2022/03/02 01:58:57;;;;;;;30.67;14.23;;;-1.20;99.90;;;;;;4969186;28;20031;-72
2022/03/02 02:01:22;;;;;;;23.67;12.13;;;-1.20;99.90;;;;;;4963679;28;20178;-72
2022/03/02 02:03:48;;;;;;;28.13;12.82;;;-1.20;99.90;;;;;;4958874;28;20034;-71
2022/03/02 02:06:14;;;;;;;29.20;13.82;;;-1.20;99.90;;;;;;4969779;28;20392;-72
2022/03/02 02:08:41;;;;;;;22.60;11.90;;;-1.20;99.90;;;;;;4959952;28;20023;-73
2022/03/02 02:11:09;;;;;;;25.40;12.20;;;-1.30;99.90;;;;;;4963491;28;20104;-72
2022/03/02 02:13:35;;;;;;;28.75;13.77;;;-1.20;99.90;;;;;;4962880;28;20096;-72
2022/03/02 02:16:02;;;;;;;26.27;12.98;;;-1.20;99.90;;;;;;4962391;28;20682;-72
2022/03/02 02:18:28;;;;;;;29.45;13.98;;;-1.20;99.90;;;;;;4967081;28;20019;-72
2022/03/02 02:20:54;;;;;;;25.23;13.98;;;-1.30;99.90;;;;;;4965705;28;20685;-72
2022/03/02 02:23:19;;;;;;;28.65;13.20;;;-1.20;99.90;;;;;;4966599;28;20035;-73
2022/03/02 02:25:45;;;;;;;32.85;13.60;;;-1.20;99.90;;;;;;5003755;23;20187;-68
2022/03/02 02:28:13;;;;;;;29.13;14.30;;;-1.20;99.90;;;;;;5023735;28;20044;-68
2022/03/02 02:30:40;;;;;;;28.23;14.40;;;-1.20;99.90;;;;;;5024120;28;20026;-68
2022/03/02 02:33:06;;;;;;;23.30;13.13;;;-1.20;99.90;;;;;;5021682;28;20060;-67
2022/03/02 02:35:32;;;;;;;25.77;12.98;;;-1.30;99.90;;;;;;5027118;28;20512;-68
2022/03/02 02:37:59;;;;;;;28.23;13.32;;;-1.30;99.90;;;;;;5020878;28;20030;-68
2022/03/02 02:40:27;;;;;;;30.25;13.18;;;-1.30;99.90;;;;;;5022348;28;20435;-68
2022/03/02 02:42:53;;;;;;;29.23;12.70;;;-1.30;99.90;;;;;;5018310;28;20083;-68
2022/03/02 02:45:21;;;;;;;30.75;13.70;;;-1.30;99.90;;;;;;5024009;28;20048;-67
2022/03/02 02:47:54;;;;;;;23.13;11.75;;;-1.40;99.90;;;;;;5022899;28;20046;-68
2022/03/02 02:50:31;;;;;;;29.60;13.55;;;-1.40;99.90;;;;;;5024553;28;20055;-68
2022/03/02 02:53:00;;;;;;;27.63;11.90;;;-1.50;99.90;;;;;;5019148;28;20106;-68
2022/03/02 02:55:28;;;;;;;29.55;13.13;;;-1.50;99.90;;;;;;5026098;28;20053;-67
2022/03/02 02:57:55;;;;;;;27.05;12.48;;;-1.50;99.90;;;;;;5020826;28;20639;-68
2022/03/02 03:00:24;;;;;;;25.15;12.25;;;-1.40;99.90;;;;;;5026002;28;20057;-67
2022/03/02 03:02:52;;;;;;;22.52;11.55;;;-1.40;99.90;;;;;;5025902;28;20022;-68
2022/03/02 03:05:21;;;;;;;22.73;11.63;;;-1.40;99.90;;;;;;5025406;28;20056;-68
2022/03/02 03:07:48;;;;;;;25.63;11.90;;;-1.40;99.90;;;;;;5025824;28;20051;-68
2022/03/02 03:10:15;;;;;;;26.80;12.55;;;-1.40;99.90;;;;;;5020659;28;20061;-69
2022/03/02 03:12:42;;;;;;;30.23;12.45;;;-1.40;99.90;;;;;;5028030;28;20044;-69
2022/03/02 03:15:11;;;;;;;29.98;12.40;;;-1.40;99.90;;;;;;5024368;28;20033;-67
2022/03/02 03:17:36;;;;;;;27.77;12.88;;;-1.40;99.90;;;;;;5029388;28;20470;-69
2022/03/02 03:20:05;;;;;;;29.38;13.50;;;-1.40;99.90;;;;;;5025794;28;20024;-69
2022/03/02 03:22:30;;;;;;;29.95;13.00;;;-1.50;99.90;;;;;;5025195;28;20474;-68
2022/03/02 03:24:56;;;;;;;26.23;12.95;;;-1.50;99.90;;;;;;5026392;28;20109;-68
2022/03/02 03:27:22;;;;;;;26.48;13.23;;;-1.60;99.90;;;;;;5029913;28;20041;-68
2022/03/02 03:29:48;;;;;;;24.00;11.90;;;-1.70;99.90;;;;;;5027084;28;20033;-69
2022/03/02 03:32:13;;;;;;;23.23;11.82;;;-1.70;99.90;;;;;;5021056;28;20414;-67
2022/03/02 03:34:39;;;;;;;30.13;13.45;;;-1.80;99.90;;;;;;5026338;28;20503;-67
2022/03/02 03:37:04;;;;;;;28.15;13.95;;;-1.90;99.90;;;;;;5026638;28;20021;-67
2022/03/02 03:39:30;;;;;;;28.80;13.52;;;-2.00;99.90;;;;;;5028230;28;20030;-68
2022/03/02 03:41:56;;;;;;;24.17;12.30;;;-2.00;99.90;;;;;;5025463;28;20470;-66
2022/03/02 03:44:22;;;;;;;27.00;12.77;;;-2.00;99.90;;;;;;5023536;28;20030;-65
2022/03/02 03:46:48;;;;;;;25.40;12.15;;;-2.00;99.90;;;;;;5028960;28;20030;-68
2022/03/02 03:49:14;;;;;;;30.48;12.23;;;-2.10;99.90;;;;;;5024590;28;20029;-69
2022/03/02 03:51:39;;;;;;;25.73;12.57;;;-2.10;99.90;;;;;;5025763;28;21229;-68
2022/03/02 03:54:06;;;;;;;24.15;12.43;;;-2.10;99.90;;;;;;5026601;28;20061;-68
2022/03/02 03:56:32;;;;;;;28.17;12.18;;;-2.10;99.90;;;;;;5027323;28;20022;-67
2022/03/02 03:59:01;;;;;;;28.05;13.30;;;-2.10;99.90;;;;;;5028736;28;20024;-68
2022/03/02 04:01:27;;;;;;;25.10;11.65;;;-2.10;99.90;;;;;;5023198;28;20029;-69
2022/03/02 04:03:53;;;;;;;26.77;12.27;;;-2.10;99.90;;;;;;5021807;28;20025;-69
2022/03/02 04:06:19;;;;;;;33.17;13.30;;;-2.10;99.90;;;;;;5024039;28;20044;-69
2022/03/02 04:08:44;;;;;;;26.42;13.25;;;-2.10;99.90;;;;;;5019949;28;20044;-69
2022/03/02 04:11:10;;;;;;;25.50;12.80;;;-2.10;99.90;;;;;;5023219;28;20030;-69
2022/03/02 04:13:36;;;;;;;23.95;13.20;;;-2.10;99.90;;;;;;5020115;28;20038;-69
2022/03/02 04:16:02;;;;;;;25.58;13.90;;;-2.10;99.90;;;;;;5024863;28;20030;-69
2022/03/02 04:18:28;;;;;;;27.52;12.45;;;-2.10;99.90;;;;;;5023002;28;20065;-68
2022/03/02 04:20:53;;;;;;;26.55;12.45;;;-2.10;99.90;;;;;;5026096;28;20057;-69
2022/03/02 04:23:21;;;;;;;23.80;11.80;;;-2.10;99.90;;;;;;5023412;28;20044;-69
2022/03/02 04:25:48;;;;;;;27.55;12.82;;;-2.10;99.90;;;;;;5026561;28;20029;-68
2022/03/02 04:28:13;;;;;;;24.50;11.90;;;-2.10;99.90;;;;;;5026025;28;20048;-68
2022/03/02 04:30:39;;;;;;;25.90;13.05;;;-2.10;99.90;;;;;;5026429;28;20029;-68
2022/03/02 04:33:05;;;;;;;27.25;12.63;;;-2.10;99.90;;;;;;5023129;28;20431;-68
2022/03/02 04:35:31;;;;;;;29.20;13.25;;;-2.10;99.90;;;;;;5023082;28;21371;-68
2022/03/02 04:37:57;;;;;;;27.17;12.57;;;-2.10;99.90;;;;;;5024883;28;20063;-67
2022/03/02 04:40:23;;;;;;;25.52;12.55;;;-2.10;99.90;;;;;;5020156;28;20109;-66
2022/03/02 04:42:49;;;;;;;24.17;11.73;;;-2.10;99.90;;;;;;5024094;28;20117;-68
2022/03/02 04:45:15;;;;;;;25.00;11.48;;;-2.10;99.90;;;;;;5021775;28;20083;-68
2022/03/02 04:47:41;;;;;;;26.45;12.63;;;-2.10;99.90;;;;;;5026565;28;20026;-68
2022/03/02 04:50:09;;;;;;;25.60;12.07;;;-2.10;99.90;;;;;;5030243;28;20489;-66
2022/03/02 04:52:35;;;;;;;24.90;12.45;;;-2.10;99.90;;;;;;5023556;28;20407;-68
2022/03/02 04:55:06;;;;;;;30.83;12.63;;;-2.10;99.90;;;;;;5022976;28;20033;-68
2022/03/02 04:57:40;;;;;;;28.30;13.35;;;-2.10;99.90;;;;;;5020204;28;20550;-68
2022/03/02 05:00:10;;;;;;;24.85;12.55;;;-2.10;99.90;;;;;;5020704;28;20022;-67
2022/03/02 05:02:37;;;;;;;23.25;11.25;;;-2.10;99.90;;;;;;5024095;28;20361;-68
2022/03/02 05:05:07;;;;;;;22.77;11.40;;;-2.10;99.90;;;;;;5020448;28;20067;-69
2022/03/02 05:07:32;;;;;;;24.90;11.50;;;-2.20;99.90;;;;;;5022996;28;20068;-68
2022/03/02 05:09:58;;;;;;;26.10;12.27;;;-2.20;99.90;;;;;;5021398;28;20040;-68
2022/03/02 05:12:24;;;;;;;21.00;10.88;;;-2.20;99.90;;;;;;5023740;28;20033;-67
2022/03/02 05:14:50;;;;;;;21.25;11.23;;;-2.20;99.90;;;;;;5022261;28;20053;-68
2022/03/02 05:17:16;;;;;;;26.20;11.07;;;-2.20;99.90;;;;;;5022609;28;20021;-68
2022/03/02 05:19:42;;;;;;;26.20;11.27;;;-2.20;99.90;;;;;;5024324;28;20074;-68
2022/03/02 05:22:08;;;;;;;20.60;10.50;;;-2.20;99.90;;;;;;5026047;28;20065;-68
2022/03/02 05:24:33;;;;;;;23.90;10.98;;;-2.20;99.90;;;;;;5026354;28;20026;-68
2022/03/02 05:26:59;;;;;;;22.20;10.93;;;-2.10;99.90;;;;;;5023692;28;20401;-66
2022/03/02 05:29:25;;;;;;;21.77;11.30;;;-2.10;99.90;;;;;;5026457;28;20086;-67
2022/03/02 05:31:50;;;;;;;26.17;10.60;;;-2.20;99.90;;;;;;5020913;28;20175;-68
2022/03/02 05:34:16;;;;;;;23.17;11.30;;;-2.20;99.90;;;;;;5024461;28;20025;-67
2022/03/02 05:36:42;;;;;;;23.67;9.65;;;-2.20;99.90;;;;;;5023705;28;20022;-67
2022/03/02 05:39:07;;;;;;;20.27;9.70;;;-2.20;99.90;;;;;;5022844;28;20040;-67
2022/03/02 05:41:33;;;;;;;21.38;9.45;;;-2.20;99.90;;;;;;5027567;28;20033;-68
2022/03/02 05:44:01;;;;;;;25.08;10.50;;;-2.20;99.90;;;;;;5014459;28;20030;-67
2022/03/02 05:46:27;;;;;;;19.83;9.82;;;-2.20;99.90;;;;;;5018009;28;20044;-67
2022/03/02 05:48:53;;;;;;;23.92;10.38;;;-2.20;99.90;;;;;;5007250;28;20479;-67
2022/03/02 05:51:19;;;;;;;21.52;10.10;;;-2.20;99.90;;;;;;5019631;28;20030;-66
2022/03/02 05:53:45;;;;;;;19.17;9.48;;;-2.10;99.90;;;;;;5027972;28;20036;-68
2022/03/02 05:56:12;;;;;;;19.50;10.52;;;-2.20;99.90;;;;;;5027635;28;20025;-68
2022/03/02 05:58:37;;;;;;;25.08;10.20;;;-2.20;99.90;;;;;;5026407;28;20022;-66
2022/03/02 06:01:03;;;;;;;26.58;10.70;;;-2.10;99.90;;;;;;5022661;28;20024;-67
2022/03/02 06:03:29;;;;;;;20.73;10.15;;;-2.00;99.90;;;;;;5021232;28;20119;-66
2022/03/02 06:05:55;;;;;;;22.25;11.93;;;-2.10;99.90;;;;;;5024920;28;20029;-67
2022/03/02 06:08:21;;;;;;;28.80;12.15;;;-2.10;99.90;;;;;;5026191;28;20025;-67
2022/03/02 06:10:48;;;;;;;38.08;16.55;;;-2.00;99.90;;;;;;5018659;28;20041;-67
2022/03/02 06:13:14;;;;;;;47.45;20.90;;;-2.00;99.90;;;;;;5025455;28;20078;-66
2022/03/02 06:15:41;;;;;;;31.25;15.25;;;-1.90;99.90;;;;;;5022521;28;20028;-65
2022/03/02 06:18:07;;;;;;;30.42;13.85;;;-1.80;99.90;;;;;;5017621;28;20394;-67
2022/03/02 06:20:33;;;;;;;26.40;12.43;;;-1.80;99.90;;;;;;5023665;28;20105;-67
2022/03/02 06:22:59;;;;;;;27.60;13.45;;;-1.70;99.90;;;;;;5023996;28;20485;-67
2022/03/02 06:25:26;;;;;;;26.98;13.73;;;-1.60;99.90;;;;;;5024270;28;20026;-66
2022/03/02 06:27:52;;;;;;;28.77;14.88;;;-1.60;99.90;;;;;;5021623;28;20033;-67
2022/03/02 06:30:18;;;;;;;29.70;13.80;;;-1.60;99.90;;;;;;5024608;28;20041;-66
2022/03/02 06:32:44;;;;;;;28.02;13.50;;;-1.50;99.90;;;;;;5025083;28;20036;-67
2022/03/02 06:35:09;;;;;;;28.73;13.20;;;-1.40;99.90;;;;;;5021996;28;20517;-67
2022/03/02 06:37:36;;;;;;;32.28;13.90;;;-1.30;99.90;;;;;;5017164;28;20030;-66
2022/03/02 06:40:08;;;;;;;25.10;13.30;;;-1.30;99.90;;;;;;5021683;28;20069;-68
2022/03/02 06:42:49;;;;;;;25.83;13.00;;;-1.20;99.90;;;;;;5025302;28;20034;-67
2022/03/02 06:45:28;;;;;;;24.38;13.30;;;-1.20;99.90;;;;;;5024361;28;20049;-68
2022/03/02 06:48:05;;;;;;;27.63;13.15;;;-1.10;99.90;;;;;;5025604;28;20070;-68
2022/03/02 06:50:31;;;;;;;27.15;12.90;;;-1.10;99.90;;;;;;5022344;28;20354;-69
2022/03/02 06:53:01;;;;;;;24.65;12.50;;;-1.00;99.90;;;;;;5026517;28;20246;-69
2022/03/02 06:55:29;;;;;;;27.55;12.90;;;-0.90;99.90;;;;;;5021580;28;20438;-67
2022/03/02 06:57:56;;;;;;;27.05;12.38;;;-0.90;99.90;;;;;;5021842;28;20033;-68
2022/03/02 07:00:23;;;;;;;29.35;13.77;;;-0.80;99.90;;;;;;5025870;28;20415;-68
2022/03/02 07:02:56;;;;;;;29.92;13.25;;;-0.70;99.90;;;;;;5026683;28;20021;-68
2022/03/02 07:05:21;;;;;;;32.80;14.15;;;-0.70;99.90;;;;;;5022179;28;20112;-67
2022/03/02 07:07:48;;;;;;;34.47;14.40;;;-0.70;99.90;;;;;;5028083;28;20457;-68
2022/03/02 07:10:14;;;;;;;24.15;13.13;;;-0.60;99.90;;;;;;5022954;28;20052;-68
2022/03/02 07:12:41;;;;;;;33.53;13.20;;;-0.60;99.90;;;;;;5019385;28;20082;-67
2022/03/02 07:15:08;;;;;;;28.80;13.25;;;-0.60;99.90;;;;;;5019817;28;20033;-68
2022/03/02 07:17:34;;;;;;;28.00;12.45;;;-0.70;99.90;;;;;;5022642;28;20025;-68
2022/03/02 07:20:06;;;;;;;26.60;12.20;;;-0.60;99.90;;;;;;5018835;28;20030;-68
2022/03/02 07:22:34;;;;;;;26.08;12.32;;;-0.60;99.90;;;;;;5018751;28;20033;-66
2022/03/02 07:25:04;;;;;;;22.42;11.65;;;-0.50;99.90;;;;;;5023772;28;20026;-67
2022/03/02 07:27:30;;;;;;;26.33;12.55;;;-0.50;99.90;;;;;;5020796;28;20037;-67
2022/03/02 07:29:56;;;;;;;24.27;12.05;;;-0.40;99.90;;;;;;5024157;28;20038;-67
2022/03/02 07:32:31;;;;;;;28.00;13.57;;;-0.30;99.90;;;;;;5025340;28;20033;-66
2022/03/02 07:34:58;;;;;;;27.35;11.35;;;-0.20;99.90;;;;;;5027221;28;20034;-67
2022/03/02 07:37:26;;;;;;;25.02;11.95;;;-0.20;99.90;;;;;;5022950;28;20534;-67
2022/03/02 07:39:51;;;;;;;27.13;12.75;;;-0.20;99.90;;;;;;5026152;28;20029;-67
2022/03/02 07:42:19;;;;;;;25.85;12.52;;;-0.30;99.90;;;;;;5025682;28;20029;-67
2022/03/02 07:44:49;;;;;;;23.90;11.98;;;-0.20;99.90;;;;;;5027915;28;20021;-68
2022/03/02 07:47:16;;;;;;;22.33;11.40;;;-0.20;99.90;;;;;;5018870;28;20038;-67
2022/03/02 07:49:43;;;;;;;24.17;11.52;;;-0.20;99.90;;;;;;5027919;28;20044;-67
2022/03/02 07:52:10;;;;;;;27.60;13.23;;;0.00;99.90;;;;;;5025338;28;20117;-67
2022/03/02 07:54:38;;;;;;;24.13;12.52;;;0.20;99.90;;;;;;5026120;28;20033;-67
2022/03/02 07:57:06;;;;;;;27.05;12.32;;;0.30;99.90;;;;;;5026913;28;20018;-68
2022/03/02 07:59:36;;;;;;;25.73;12.30;;;0.40;99.90;;;;;;5027526;28;20022;-67
2022/03/02 08:02:04;;;;;;;24.98;12.95;;;0.50;99.90;;;;;;5025845;28;20063;-68
2022/03/02 08:04:31;;;;;;;24.73;12.68;;;0.60;99.90;;;;;;5019186;28;20393;-67
2022/03/02 08:06:57;;;;;;;30.77;12.57;;;0.70;99.90;;;;;;5019833;28;20045;-67
2022/03/02 08:09:22;;;;;;;28.05;13.73;;;0.80;99.90;;;;;;5031176;28;20493;-68
2022/03/02 08:11:48;;;;;;;22.17;11.98;;;0.80;99.90;;;;;;5030044;28;20116;-67
2022/03/02 08:14:17;;;;;;;25.27;12.25;;;0.80;99.90;;;;;;5033245;28;20021;-66
2022/03/02 08:16:47;;;;;;;22.85;11.40;;;0.90;99.90;;;;;;5026759;28;20051;-68
2022/03/02 08:19:13;;;;;;;24.38;11.85;;;0.90;99.90;;;;;;5026395;28;20479;-66
2022/03/02 08:21:43;;;;;;;25.23;12.32;;;1.00;99.90;;;;;;5024515;28;20029;-67
2022/03/02 08:24:12;;;;;;;28.42;12.75;;;1.00;99.90;;;;;;5024946;28;20377;-68
2022/03/02 08:26:39;;;;;;;25.23;11.98;;;1.10;99.90;;;;;;5028143;28;20033;-71
2022/03/02 08:29:11;;;;;;;34.00;14.40;;;1.10;99.90;;;;;;5028898;28;20486;-71
2022/03/02 08:31:39;;;;;;;24.10;11.85;;;1.00;99.90;;;;;;5029993;28;20390;-71
2022/03/02 08:34:06;;;;;;;27.75;12.55;;;1.10;99.90;;;;;;5027862;28;20033;-72
2022/03/02 08:36:34;;;;;;;22.30;11.77;;;1.20;99.90;;;;;;5028138;28;20577;-72
2022/03/02 08:39:11;;;;;;;22.80;11.75;;;1.30;99.90;;;;;;5026221;28;20481;-71
2022/03/02 08:41:39;;;;;;;22.85;11.90;;;1.30;99.90;;;;;;5028845;28;20026;-72
2022/03/02 08:44:06;;;;;;;29.60;12.88;;;1.40;99.90;;;;;;5025971;28;20025;-72
2022/03/02 08:46:32;;;;;;;24.58;12.27;;;1.50;99.90;;;;;;5029769;28;20057;-71
2022/03/02 08:48:59;;;;;;;25.90;12.00;;;1.40;99.90;;;;;;5027876;28;20044;-72
2022/03/02 08:51:26;;;;;;;28.13;13.38;;;1.50;99.90;;;;;;5029490;28;20017;-72
2022/03/02 08:53:55;;;;;;;23.17;11.88;;;1.60;99.90;;;;;;5021790;28;20022;-72
2022/03/02 08:56:21;;;;;;;27.30;11.32;;;1.70;99.90;;;;;;5026683;28;20025;-71
2022/03/02 08:58:49;;;;;;;22.45;11.50;;;1.90;99.70;;;;;;5027312;28;20048;-71
2022/03/02 09:01:15;;;;;;;20.75;11.60;;;2.00;99.20;;;;;;5026865;28;20026;-71
2022/03/02 09:03:45;;;;;;;23.90;12.77;;;2.20;99.30;;;;;;5027880;28;20021;-72
2022/03/02 09:06:11;;;;;;;22.65;12.65;;;2.20;98.70;;;;;;5023985;28;20088;-71
2022/03/02 09:08:38;;;;;;;21.08;11.95;;;2.20;98.50;;;;;;5027114;28;20494;-71
2022/03/02 09:11:04;;;;;;;26.15;12.13;;;2.30;98.60;;;;;;5028175;28;20020;-72
2022/03/02 09:13:30;;;;;;;25.98;12.70;;;2.50;98.60;;;;;;5027923;28;20079;-72
2022/03/02 09:15:56;;;;;;;21.90;11.88;;;2.60;97.60;;;;;;5030629;28;20017;-72
2022/03/02 09:18:22;;;;;;;27.77;12.82;;;2.60;97.20;;;;;;5032990;28;20022;-73
2022/03/02 09:20:55;;;;;;;23.65;11.52;;;2.70;97.20;;;;;;5028052;28;20520;-71
2022/03/02 09:23:23;;;;;;;32.63;12.82;;;2.90;96.60;;;;;;5027602;28;20065;-72
2022/03/02 09:25:50;;;;;;;23.20;11.88;;;2.90;96.50;;;;;;5028322;28;20114;-72
2022/03/02 09:28:16;;;;;;;22.75;11.43;;;3.00;95.70;;;;;;5029357;28;20068;-72
2022/03/02 09:30:43;;;;;;;25.10;12.25;;;3.10;95.50;;;;;;5028461;28;20022;-71
2022/03/02 09:33:14;;;;;;;22.75;11.50;;;3.20;95.10;;;;;;5032642;28;20025;-71
2022/03/02 09:35:40;;;;;;;21.83;12.23;;;3.30;94.90;;;;;;5023529;28;20045;-71
2022/03/02 09:38:07;;;;;;;24.08;13.05;;;3.50;94.50;;;;;;5027263;28;20024;-73
2022/03/02 09:40:33;;;;;;;25.40;13.05;;;3.60;94.00;;;;;;5028390;28;20029;-73
2022/03/02 09:43:05;;;;;;;28.58;12.90;;;3.70;93.50;;;;;;5025685;28;20069;-74
2022/03/02 09:45:33;;;;;;;23.50;12.32;;;3.90;92.80;;;;;;5026061;28;20022;-72
2022/03/02 09:48:03;;;;;;;25.88;13.05;;;4.00;92.30;;;;;;5021871;28;20025;-71
2022/03/02 09:50:37;;;;;;;26.08;12.60;;;4.10;92.10;;;;;;5025572;28;20034;-72
2022/03/02 09:53:07;;;;;;;;;;;4.10;91.60;;;;;;4996664;28;20067;-71
2022/03/02 09:55:35;;;;;;;24.80;13.15;;;4.10;91.30;;;;;;5015967;28;20024;-70
2022/03/02 09:58:03;;;;;;;22.85;11.82;;;4.20;91.30;;;;;;5007219;28;20030;-72
2022/03/02 10:00:29;;;;;;;25.52;13.10;;;4.20;91.30;;;;;;5007950;28;20064;-73
2022/03/02 10:03:01;;;;;;;22.25;11.73;;;4.20;91.10;;;;;;5008437;28;20022;-71
2022/03/02 10:05:29;;;;;;;24.77;12.85;;;4.20;90.90;;;;;;5001966;28;20494;-71
2022/03/02 10:08:00;;;;;;;25.17;12.90;;;4.20;90.90;;;;;;5000894;28;20018;-73
2022/03/02 10:10:28;;;;;;;29.65;13.57;;;4.20;91.00;;;;;;5006483;28;20040;-71
2022/03/02 10:12:56;;;;;;;36.35;13.27;;;4.20;91.10;;;;;;5008329;28;20104;-72
2022/03/02 10:15:23;;;;;;;25.42;13.02;;;4.20;90.50;;;;;;5012759;28;20030;-73
2022/03/02 10:17:51;;;;;;;33.72;13.38;;;4.20;90.30;;;;;;5022483;28;20029;-72
2022/03/02 10:20:23;;;;;;;22.88;12.00;;;4.20;90.40;;;;;;5007837;28;20479;-72
2022/03/02 10:23:26;;;;;;;23.67;12.95;;;4.30;90.90;;;;;;5009280;28;20381;-73
2022/03/02 10:26:15;;;;;;;27.02;12.75;;;4.30;90.40;;;;;;5025250;28;20080;-72
2022/03/02 10:28:46;;;;;;;32.33;15.50;;;4.40;90.30;;;;;;5003161;28;20048;-72
2022/03/02 10:31:41;;;;;;;23.63;12.18;;;4.40;90.40;;;;;;5012899;28;20040;-71
2022/03/02 10:34:22;;;;;;;31.60;13.90;;;4.40;90.00;;;;;;5009623;28;20064;-71
2022/03/02 10:36:55;;;;;;;29.45;13.43;;;4.40;90.30;;;;;;5010271;28;20029;-74
2022/03/02 10:39:38;;;;;;;23.05;11.63;;;4.50;90.20;;;;;;5005679;28;20025;-71
2022/03/02 10:42:05;;;;;;;26.27;13.20;;;4.70;90.10;;;;;;5007052;28;20474;-74
2022/03/02 10:44:47;;;;;;;28.58;13.93;;;4.70;89.50;;;;;;5008951;28;20483;-71
2022/03/02 10:47:17;;;;;;;24.02;12.18;;;4.80;88.90;;;;;;5009264;28;20053;-73
2022/03/02 10:49:45;;;;;;;25.45;13.40;;;4.90;88.60;;;;;;5005995;28;20471;-72
2022/03/02 10:52:14;;;;;;;26.23;12.88;;;5.10;87.50;;;;;;5004039;28;20045;-70
2022/03/02 10:54:41;;;;;;;22.75;12.75;;;5.20;87.00;;;;;;5007385;28;20026;-73
2022/03/02 10:57:11;;;;;;;26.02;13.00;;;5.30;86.80;;;;;;5008381;28;20022;-73
2022/03/02 10:59:40;;;;;;;27.35;12.48;;;5.50;86.20;;;;;;5005206;28;20364;-73
2022/03/02 11:02:05;;;;;;;25.52;13.05;;;5.60;85.20;;;;;;5005229;28;20022;-71
2022/03/02 11:04:38;;;;;;;24.67;13.02;;;5.80;84.70;;;;;;5004045;28;20133;-72
2022/03/02 11:07:04;;;;;;;26.23;13.43;;;5.90;84.60;;;;;;5004316;28;20073;-72
2022/03/02 11:09:34;;;;;;;21.17;11.88;;;6.10;83.50;;;;;;5000171;28;20032;-73
2022/03/02 11:12:01;;;;;;;26.63;13.25;;;6.10;82.60;;;;;;5003937;28;20032;-71
2022/03/02 11:14:27;;;;;;;27.67;14.57;;;6.10;82.40;;;;;;5011539;28;20022;-71
2022/03/02 11:17:15;;;;;;;23.80;12.30;;;6.20;81.80;;;;;;5013976;28;20105;-72
2022/03/02 11:19:44;;;;;;;26.50;14.48;;;6.30;81.20;;;;;;5011369;28;20022;-71
2022/03/02 11:22:13;;;;;;;22.55;12.82;;;6.50;80.50;;;;;;5013125;28;20113;-71
2022/03/02 11:24:39;;;;;;;27.80;13.57;;;6.70;79.20;;;;;;5027496;28;20047;-72
2022/03/02 11:27:06;;;;;;;26.00;12.40;;;6.90;78.30;;;;;;5012223;28;20030;-71
2022/03/02 11:29:32;;;;;;;23.38;13.30;;;7.00;77.40;;;;;;5024781;28;20036;-72
2022/03/02 11:31:57;;;;;;;24.88;12.50;;;7.00;77.20;;;;;;5010947;28;20030;-71
2022/03/02 11:34:28;;;;;;;22.85;13.85;;;7.00;77.20;;;;;;5009061;28;20060;-72
2022/03/02 11:37:00;;;;;;;27.77;14.27;;;7.10;76.40;;;;;;5016363;28;20148;-73
2022/03/02 11:39:27;;;;;;;25.85;13.25;;;7.20;76.50;;;;;;5010696;28;20018;-73
2022/03/02 11:41:57;;;;;;;26.05;13.65;;;7.20;75.90;;;;;;5023034;28;20570;-72
2022/03/02 11:44:30;;;;;;;25.50;13.98;;;7.30;75.90;;;;;;5006090;28;20048;-71
2022/03/02 11:46:58;;;;;;;27.20;14.77;;;7.40;75.60;;;;;;5005941;28;20438;-72
2022/03/02 11:49:53;;;;;;;28.55;13.70;;;7.60;75.60;;;;;;5007762;28;20034;-73
2022/03/02 11:52:20;;;;;;;24.23;12.40;;;7.50;72.70;;;;;;5010413;28;20037;-73
2022/03/02 11:54:49;;;;;;;24.13;12.35;;;7.60;71.50;;;;;;5011957;28;20560;-72
2022/03/02 11:57:16;;;;;;;20.63;11.57;;;7.50;71.00;;;;;;5010649;28;20032;-74
2022/03/02 11:59:43;;;;;;;19.38;11.38;;;7.80;70.60;;;;;;5013561;28;20394;-72
2022/03/02 12:02:14;;;;;;;24.63;11.70;;;7.80;69.60;;;;;;5003568;28;20494;-72
2022/03/02 12:04:40;;;;;;;21.67;11.30;;;7.80;67.40;;;;;;5010931;28;20378;-74
2022/03/02 12:07:08;;;;;;;20.80;10.98;;;7.90;67.50;;;;;;5011427;28;20491;-74
2022/03/02 12:09:37;;;;;;;23.90;11.32;;;7.80;66.40;;;;;;5028283;28;20022;-74
2022/03/02 12:12:12;;;;;;;21.27;11.45;;;7.80;67.30;;;;;;5028865;28;20037;-75
2022/03/02 12:15:01;;;;;;;18.38;9.77;;;7.90;67.20;;;;;;5011507;28;20025;-72
2022/03/02 12:17:30;;;;;;;21.98;11.07;;;8.10;66.30;;;;;;5010925;28;20068;-74
2022/03/02 12:20:18;;;;;;;17.50;10.07;;;8.20;65.80;;;;;;5011971;28;20031;-72
2022/03/02 12:22:53;;;;;;;19.05;10.60;;;8.10;62.70;;;;;;5013858;28;20029;-73
2022/03/02 12:25:22;;;;;;;15.85;8.48;;;8.00;64.00;;;;;;5010453;28;20066;-72
2022/03/02 12:27:59;;;;;;;17.27;9.75;;;8.00;63.20;;;;;;5010251;28;20710;-73
2022/03/02 12:30:27;;;;;;;18.17;10.18;;;7.90;60.00;;;;;;5013616;28;20033;-73
2022/03/02 12:32:54;;;;;;;18.10;9.40;;;7.90;61.40;;;;;;5004904;28;20022;-73
2022/03/02 12:35:24;;;;;;;18.15;9.85;;;7.90;60.80;;;;;;5014322;28;20482;-76